Time;durP1;ratioP1;P1;durP2;ratioP2;P2;SDS_P1;SDS_P2;PMS_P1;PMS_P2;Temp;Humidity;BMP_temperature;BMP_pressure;BME280_temperature;BME280_humidity;BME280_pressure;Samples;Min_cycle;Max_cycle;Signal;HPM_P1;HPM_P2
2021/10/16 00:01:27;;;;;;;13.35;8.35;;;;;;;9.51;68.06;100047.19;4935603;29;20051;-90
2021/10/16 00:03:56;;;;;;;11.77;7.65;;;;;;;9.53;67.98;100047.09;4934395;29;20135;-89
2021/10/16 00:06:26;;;;;;;13.98;6.85;;;;;;;9.64;67.29;100047.41;4934869;29;20043;-89
2021/10/16 00:08:54;;;;;;;9.88;6.32;;;;;;;9.61;67.37;100047.56;4934383;29;20056;-89
2021/10/16 00:11:22;;;;;;;13.75;7.20;;;;;;;9.59;67.43;100049.44;4934408;29;20498;-89
2021/10/16 00:13:49;;;;;;;12.27;7.18;;;;;;;9.57;67.44;100048.63;4934033;29;20040;-89
2021/10/16 00:16:18;;;;;;;11.85;6.90;;;;;;;9.52;67.15;100040.22;4935875;29;20434;-88
2021/10/16 00:18:48;;;;;;;10.00;6.35;;;;;;;9.54;67.42;100043.59;4934109;29;20113;-88
2021/10/16 00:21:36;;;;;;;9.20;6.22;;;;;;;9.57;67.44;100048.63;4935000;29;20048;-90
2021/10/16 00:24:22;;;;;;;9.05;6.07;;;;;;;9.58;66.90;100047.72;4935104;29;20035;-89
2021/10/16 00:29:47;;;;;;;10.43;6.40;;;;;;;9.45;68.26;100050.91;4933849;29;20044;-90
2021/10/16 00:32:37;;;;;;;9.50;7.03;;;;;;;9.39;68.72;100042.56;4949486;29;20135;-90
2021/10/16 00:35:05;;;;;;;10.02;5.80;;;;;;;9.38;68.50;100038.31;4949554;29;20112;-89
2021/10/16 00:38:08;;;;;;;8.27;5.60;;;;;;;9.38;68.33;100039.13;4935040;29;20103;-90
2021/10/16 00:40:36;;;;;;;8.30;6.63;;;;;;;9.59;67.34;100041.63;4933578;29;20048;-90
2021/10/16 00:43:03;;;;;;;10.63;5.90;;;;;;;9.56;67.24;100040.00;4950065;29;20075;-89
2021/10/16 00:45:31;;;;;;;11.63;6.28;;;;;;;9.66;66.45;100040.38;4935013;29;20053;-89
2021/10/16 00:48:02;;;;;;;10.10;6.90;;;;;;;9.56;66.81;100036.56;4933892;29;20070;-89
2021/10/16 00:50:45;;;;;;;;;;;;;;;9.57;66.22;100039.06;4948872;29;20426;-89
2021/10/16 00:53:27;;;;;;;11.80;6.43;;;;;;;9.49;66.86;100040.38;4915986;29;20059;-90
2021/10/16 00:56:16;;;;;;;10.18;6.93;;;;;;;9.38;67.37;100046.94;4942668;29;20061;-90
2021/10/16 00:58:50;;;;;;;11.35;6.63;;;;;;;9.34;67.48;100044.56;4921549;29;20493;-90
2021/10/16 01:02:22;;;;;;;14.70;7.22;;;;;;;9.39;67.39;100035.63;4950739;29;20055;-89
2021/10/16 01:04:53;;;;;;;10.73;6.10;;;;;;;9.37;67.63;100034.81;4952566;29;20134;-88
2021/10/16 01:07:23;;;;;;;12.77;7.07;;;;;;;9.43;66.89;100044.97;4952391;29;20134;-88
2021/10/16 01:10:08;;;;;;;17.60;8.75;;;;;;;9.39;67.29;100039.97;4951928;29;20071;-88
2021/10/16 01:12:47;;;;;;;11.50;7.53;;;;;;;9.34;67.54;100031.56;4953658;29;20470;-87
2021/10/16 01:15:22;;;;;;;11.73;7.70;;;;;;;9.31;67.97;100036.88;4953960;29;20139;-89
2021/10/16 01:18:10;;;;;;;13.48;8.30;;;;;;;9.29;67.67;100034.38;4938185;29;20490;-88
2021/10/16 01:21:09;;;;;;;13.45;7.05;;;;;;;9.36;67.26;100021.91;4932283;29;20051;-89
2021/10/16 01:23:54;;;;;;;13.20;7.60;;;;;;;9.35;67.08;100028.03;4952287;29;20051;-90
2021/10/16 01:26:37;;;;;;;16.35;8.43;;;;;;;9.38;67.21;100020.94;4938819;29;20099;-89
2021/10/16 01:29:13;;;;;;;18.85;7.97;;;;;;;9.29;67.99;100023.97;4936382;29;20047;-90
2021/10/16 01:32:07;;;;;;;14.88;7.60;;;;;;;9.39;66.86;100020.00;4934641;29;20050;-90
2021/10/16 01:34:36;;;;;;;13.65;7.15;;;;;;;9.31;67.52;100024.72;4921970;29;20555;-90
2021/10/16 01:37:24;;;;;;;19.50;7.38;;;;;;;9.30;67.23;100027.41;4938786;29;20070;-87
2021/10/16 01:39:51;;;;;;;13.30;7.85;;;;;;;9.31;67.25;100019.53;4955880;29;20065;-88
2021/10/16 01:42:28;;;;;;;10.25;6.95;;;;;;;9.30;67.68;100023.03;4940183;29;20090;-87
2021/10/16 01:45:05;;;;;;;13.13;7.30;;;;;;;9.22;67.73;100019.97;4939685;29;20444;-88
2021/10/16 01:47:51;;;;;;;11.07;8.00;;;;;;;9.27;67.58;100019.72;4956183;29;20434;-87
2021/10/16 01:50:24;;;;;;;10.63;7.00;;;;;;;9.23;67.78;100021.66;4939292;29;20073;-88
2021/10/16 01:52:53;;;;;;;10.75;6.65;;;;;;;9.27;67.30;100015.41;4939530;29;20055;-90
2021/10/16 01:55:25;;;;;;;9.68;5.25;;;;;;;9.32;67.21;100020.34;4936411;29;20561;-90
2021/10/16 01:57:53;;;;;;;11.05;6.65;;;;;;;9.37;66.37;100018.38;4938291;29;20051;-90
2021/10/16 02:00:21;;;;;;;9.65;5.93;;;;;;;9.39;66.23;100011.34;4953202;29;20447;-89
2021/10/16 02:02:56;;;;;;;11.27;5.07;;;;;;;9.36;66.32;100017.53;4935905;29;20051;-89
2021/10/16 02:05:34;;;;;;;8.75;5.63;;;;;;;9.45;65.66;100016.25;4936839;29;20508;-89
2021/10/16 02:08:32;;;;;;;6.95;4.82;;;;;;;9.47;64.99;100016.19;4927780;29;20521;-90
2021/10/16 02:11:02;;;;;;;9.40;6.15;;;;;;;9.42;65.18;100009.44;4952504;29;20529;-90
2021/10/16 02:13:40;;;;;;;7.43;4.80;;;;;;;9.49;65.33;100014.34;4936858;29;20272;-89
2021/10/16 02:16:26;;;;;;;7.43;5.22;;;;;;;9.43;65.74;100015.50;4935274;29;20054;-89
2021/10/16 02:19:13;;;;;;;9.73;5.90;;;;;;;9.38;66.48;100013.13;4935958;29;20071;-88
2021/10/16 02:21:56;;;;;;;10.57;5.63;;;;;;;9.36;66.12;100014.94;4935488;29;20043;-88
2021/10/16 02:25:03;;;;;;;8.57;5.47;;;;;;;9.37;66.01;100003.59;4907683;29;20048;-88
2021/10/16 02:27:40;;;;;;;8.48;5.60;;;;;;;9.27;66.34;100005.00;4951949;29;20410;-87
2021/10/16 02:30:09;;;;;;;9.27;5.63;;;;;;;9.23;66.26;100003.47;4904974;29;20044;-88
2021/10/16 02:32:52;;;;;;;11.43;5.72;;;;;;;9.04;67.43;100010.44;4945907;29;20067;-86
2021/10/16 02:35:56;;;;;;;8.60;6.15;;;;;;;8.90;68.27;100019.75;4949090;29;20039;-88
2021/10/16 02:38:32;;;;;;;7.80;5.95;;;;;;;8.80;68.63;100017.66;4937610;29;20103;-87
2021/10/16 02:41:15;;;;;;;9.30;5.13;;;;;;;8.67;69.21;100012.16;4936650;29;20075;-89
2021/10/16 02:43:46;;;;;;;9.57;6.25;;;;;;;8.65;69.63;100014.00;4937604;29;20108;-87
2021/10/16 02:46:22;;;;;;;8.90;5.50;;;;;;;8.63;69.81;100015.81;4935354;29;20039;-89
2021/10/16 02:55:41;;;;;;;10.45;6.10;;;;;;;8.62;69.53;100014.94;4923667;29;20134;-89
2021/10/16 02:58:11;;;;;;;8.90;6.45;;;;;;;8.61;69.69;100017.63;4920751;29;20486;-88
2021/10/16 03:01:32;;;;;;;11.10;7.65;;;;;;;8.65;69.45;100021.78;4933936;29;20113;-91
2021/10/16 03:04:02;;;;;;;8.35;5.78;;;;;;;8.47;70.71;100031.25;4938078;29;20047;-91
2021/10/16 03:06:39;;;;;;;9.60;6.28;;;;;;;8.28;72.16;100035.53;4938712;29;20059;-90
2021/10/16 03:09:25;;;;;;;12.90;7.57;;;;;;;7.85;75.06;100043.41;4955609;29;20476;-90
2021/10/16 03:15:01;;;;;;;12.65;8.57;;;;;;;7.71;76.84;100047.47;4938372;29;20043;-90
2021/10/16 03:17:51;;;;;;;16.83;8.85;;;;;;;7.35;79.13;100043.75;4937941;29;20134;-90
2021/10/16 03:23:46;;;;;;;16.00;8.50;;;;;;;7.18;81.05;100053.91;4934761;29;20032;-90
2021/10/16 03:26:15;;;;;;;12.40;9.25;;;;;;;7.12;81.80;100048.97;4919575;29;20039;-90
2021/10/16 03:28:55;;;;;;;6.95;5.15;;;;;;;7.16;82.03;100053.16;4931814;29;20054;-90
2021/10/16 03:31:28;;;;;;;11.45;6.20;;;;;;;6.97;82.71;100047.81;4954459;29;20434;-90
2021/10/16 03:34:26;;;;;;;8.27;6.30;;;;;;;6.97;82.91;100053.00;4937051;29;20082;-90
2021/10/16 03:36:57;;;;;;;11.45;7.72;;;;;;;6.71;84.05;100054.00;4938620;29;20147;-90
2021/10/16 03:39:25;;;;;;;11.45;7.60;;;;;;;6.76;83.79;100054.66;4922512;29;20433;-90
2021/10/16 03:42:03;;;;;;;14.10;7.95;;;;;;;6.83;83.28;100044.91;4937830;29;20075;-90
2021/10/16 03:44:35;;;;;;;11.45;6.78;;;;;;;6.65;83.78;100043.84;4922096;29;20043;-90
2021/10/16 03:47:25;;;;;;;9.18;6.32;;;;;;;6.60;84.21;100047.50;4938374;29;20497;-90
2021/10/16 03:50:19;;;;;;;16.48;9.20;;;;;;;6.73;83.69;100031.47;4937446;29;20095;-91
2021/10/16 03:53:10;;;;;;;16.42;9.63;;;;;;;6.73;83.84;100048.75;4954038;29;20572;-89
2021/10/16 03:55:43;;;;;;;10.55;7.47;;;;;;;6.62;84.51;100054.34;4954773;28;20047;-90
2021/10/16 03:58:18;;;;;;;12.98;7.68;;;;;;;6.60;85.31;100057.88;4954768;29;20055;-89
2021/10/16 04:00:48;;;;;;;10.75;7.30;;;;;;;6.73;85.28;100053.94;4937996;29;20126;-82
2021/10/16 04:03:16;;;;;;;11.70;7.45;;;;;;;6.80;84.14;100042.44;4954521;29;20055;-83
2021/10/16 04:05:46;;;;;;;11.35;8.27;;;;;;;6.87;83.46;100049.09;4922228;29;20051;-83
2021/10/16 04:08:13;;;;;;;14.48;9.95;;;;;;;6.48;85.18;100053.97;4937550;29;20414;-82
2021/10/16 04:10:40;;;;;;;12.80;6.88;;;;;;;6.68;84.53;100055.84;4936887;29;20043;-83
2021/10/16 04:13:07;;;;;;;11.98;8.20;;;;;;;6.70;84.80;100054.88;4937196;29;20186;-83
2021/10/16 04:15:41;;;;;;;13.93;8.98;;;;;;;6.76;84.41;100054.66;4936795;29;20047;-82
2021/10/16 04:18:08;;;;;;;13.60;8.50;;;;;;;6.71;84.75;100061.78;4936919;29;20051;-83
2021/10/16 04:20:36;;;;;;;10.82;7.50;;;;;;;6.72;85.09;100054.84;4954140;29;20040;-83
2021/10/16 04:23:03;;;;;;;19.17;9.93;;;;;;;6.53;85.69;100054.66;4937047;29;20477;-85
2021/10/16 04:25:30;;;;;;;19.75;10.13;;;;;;;6.65;85.70;100055.94;4936698;29;20094;-85
2021/10/16 04:27:57;;;;;;;16.83;8.10;;;;;;;6.68;85.85;100051.50;4937290;29;20461;-85
2021/10/16 04:30:37;;;;;;;13.85;7.97;;;;;;;6.62;86.36;100058.66;4937112;29;20423;-83
2021/10/16 04:33:04;;;;;;;12.68;8.68;;;;;;;6.62;86.02;100053.50;4936504;29;20039;-84
2021/10/16 04:35:32;;;;;;;9.75;6.22;;;;;;;6.63;86.32;100050.84;4951678;29;20050;-85
2021/10/16 04:38:00;;;;;;;19.80;7.60;;;;;;;6.62;85.98;100056.94;4933496;29;20051;-83
2021/10/16 04:40:27;;;;;;;12.95;8.13;;;;;;;6.70;85.76;100059.22;4952135;29;20489;-84
2021/10/16 04:42:55;;;;;;;14.57;7.15;;;;;;;6.81;84.48;100060.50;4921004;29;20473;-83
2021/10/16 04:45:23;;;;;;;13.95;7.57;;;;;;;6.83;84.47;100044.91;4936477;29;20046;-83
2021/10/16 04:47:54;;;;;;;18.30;9.02;;;;;;;6.74;84.83;100056.47;4936344;29;20039;-84
2021/10/16 04:50:23;;;;;;;12.40;7.15;;;;;;;6.79;84.27;100062.31;4952689;29;20446;-84
2021/10/16 04:52:52;;;;;;;29.55;9.80;;;;;;;6.85;83.45;100053.47;4936409;29;20043;-84
2021/10/16 04:55:30;;;;;;;12.38;8.52;;;;;;;6.87;83.26;100051.69;4932969;29;20452;-83
2021/10/16 04:57:58;;;;;;;14.48;9.48;;;;;;;6.83;83.52;100056.13;4933095;29;20048;-83
2021/10/16 05:00:36;;;;;;;15.90;7.50;;;;;;;6.85;83.54;100053.47;4933317;29;20123;-82
2021/10/16 05:03:07;;;;;;;14.38;7.63;;;;;;;6.78;84.43;100062.38;4946074;29;20119;-81
2021/10/16 05:05:36;;;;;;;15.88;8.60;;;;;;;6.67;84.44;100057.59;4938357;29;20119;-83
2021/10/16 05:08:08;;;;;;;14.20;8.27;;;;;;;6.66;84.81;100062.81;4934070;29;20044;-91
2021/10/16 05:10:50;;;;;;;13.27;8.85;;;;;;;6.65;85.56;100058.53;4920658;29;20376;-91
2021/10/16 05:13:18;;;;;;;16.35;8.88;;;;;;;6.66;85.09;100073.19;4935733;29;20047;-90
2021/10/16 05:15:48;;;;;;;16.75;9.38;;;;;;;6.67;85.06;100070.56;4918863;29;20467;-92
2021/10/16 05:18:16;;;;;;;14.35;8.65;;;;;;;6.75;84.68;100073.69;4950080;29;20083;-90
2021/10/16 05:20:52;;;;;;;14.77;8.35;;;;;;;6.75;84.07;100072.84;4950708;29;20082;-89
2021/10/16 05:23:22;;;;;;;15.38;9.00;;;;;;;6.74;84.48;100074.59;4934761;29;20044;-90
2021/10/16 05:25:51;;;;;;;14.98;9.43;;;;;;;6.82;83.66;100080.34;4934577;29;20080;-89
2021/10/16 05:28:21;;;;;;;12.10;7.97;;;;;;;6.83;83.08;100081.19;4933771;29;20502;-90
2021/10/16 05:30:51;;;;;;;11.65;8.45;;;;;;;6.83;83.15;100082.03;4948810;29;20059;-89
2021/10/16 05:33:20;;;;;;;13.10;7.25;;;;;;;6.81;82.91;100081.22;4933234;29;20043;-90
2021/10/16 05:35:51;;;;;;;11.35;7.13;;;;;;;6.86;nan;100081.06;4917937;29;20043;-88
2021/10/16 05:38:21;;;;;;;11.48;8.05;;;;;;;6.82;83.47;100088.13;4948906;29;20139;-87
2021/10/16 05:40:49;;;;;;;16.38;7.78;;;;;;;6.68;84.30;100090.38;4930205;29;20501;-84
2021/10/16 05:43:17;;;;;;;15.02;8.60;;;;;;;6.76;83.97;100087.47;4923319;29;20064;-83
2021/10/16 05:45:48;;;;;;;11.95;7.95;;;;;;;6.78;83.88;100093.47;4928142;29;20052;-81
2021/10/16 05:48:16;;;;;;;14.43;9.43;;;;;;;6.87;83.10;100094.84;4925695;29;20127;-79
2021/10/16 05:50:43;;;;;;;14.25;7.35;;;;;;;7.11;80.96;100095.69;4913793;29;20068;-82
2021/10/16 05:53:14;;;;;;;15.38;8.48;;;;;;;7.27;79.96;100102.81;4927251;29;20058;-83
2021/10/16 05:55:43;;;;;;;14.82;8.45;;;;;;;7.39;79.32;100116.22;4922240;29;20099;-83
2021/10/16 05:58:11;;;;;;;15.43;8.93;;;;;;;7.46;78.78;100110.75;4940656;29;20498;-83
2021/10/16 06:01:08;;;;;;;11.30;7.05;;;;;;;7.52;78.71;100112.25;4901918;29;20202;-83
2021/10/16 06:03:47;;;;;;;15.63;8.40;;;;;;;7.63;78.11;100120.44;4928261;29;20052;-82
2021/10/16 06:09:52;;;;;;;10.52;6.68;;;;;;;7.58;78.90;100124.97;4929188;29;20063;-85
2021/10/16 06:12:19;;;;;;;12.77;7.80;;;;;;;7.77;77.88;100125.06;4930108;29;20044;-83
2021/10/16 06:14:46;;;;;;;13.35;7.85;;;;;;;7.98;76.48;100133.75;4923925;29;20043;-83
2021/10/16 06:17:26;;;;;;;12.68;7.53;;;;;;;8.10;76.35;100133.25;4930686;29;20410;-85
2021/10/16 06:19:55;;;;;;;11.43;8.05;;;;;;;8.21;75.30;100141.44;4926160;29;20056;-85
2021/10/16 06:22:21;;;;;;;12.85;8.25;;;;;;;8.26;75.41;100136.91;4917889;29;20075;-86
2021/10/16 06:24:51;;;;;;;12.52;6.63;;;;;;;8.36;75.47;100146.03;4932074;29;20139;-84
2021/10/16 06:27:23;;;;;;;11.60;7.82;;;;;;;8.51;74.61;100146.25;4929299;29;20044;-83
2021/10/16 06:29:53;;;;;;;11.00;7.25;;;;;;;8.60;74.89;100151.06;4943904;29;20151;-85
2021/10/16 06:32:21;;;;;;;12.07;7.28;;;;;;;8.70;74.21;100151.50;4944977;29;20048;-88
2021/10/16 06:34:53;;;;;;;13.45;6.88;;;;;;;8.77;74.43;100155.53;4932289;29;20048;-85
2021/10/16 06:37:20;;;;;;;15.88;8.02;;;;;;;8.81;74.55;100155.31;4930127;29;20050;-86
2021/10/16 06:39:47;;;;;;;11.60;6.47;;;;;;;8.95;73.86;100148.66;4946270;29;20098;-85
2021/10/16 06:42:14;;;;;;;12.18;7.60;;;;;;;9.08;73.37;100155.00;4930193;29;20087;-87
2021/10/16 06:45:04;;;;;;;11.43;7.25;;;;;;;9.21;72.94;100157.88;4930343;29;20048;-89
2021/10/16 06:47:47;;;;;;;11.77;8.10;;;;;;;9.30;73.53;100166.09;4932771;29;20130;-82
2021/10/16 06:50:30;;;;;;;13.27;7.00;;;;;;;9.43;72.95;100166.41;4935782;29;20091;-83
2021/10/16 06:52:57;;;;;;;11.30;8.20;;;;;;;9.61;71.62;100164.69;4934663;29;20506;-83
2021/10/16 06:55:24;;;;;;;18.20;11.00;;;;;;;9.77;69.65;100162.19;4934789;29;20135;-83
2021/10/16 06:57:50;;;;;;;17.45;11.93;;;;;;;9.87;69.80;100172.09;4949039;29;20058;-84
2021/10/16 07:00:17;;;;;;;25.75;11.63;;;;;;;10.08;69.52;100174.59;4949357;29;20071;-83
2021/10/16 07:02:45;;;;;;;14.52;8.73;;;;;;;10.21;69.56;100183.47;4948906;29;20059;-84
2021/10/16 07:05:16;;;;;;;14.02;9.35;;;;;;;10.26;69.32;100180.66;4933413;29;20044;-84
2021/10/16 07:07:42;;;;;;;12.75;8.43;;;;;;;10.36;68.59;100184.50;4949254;29;20043;-84
2021/10/16 07:10:10;;;;;;;15.50;9.02;;;;;;;10.44;67.85;100185.81;4932621;29;20051;-84
2021/10/16 07:12:37;;;;;;;12.45;8.05;;;;;;;10.51;67.61;100194.16;4934148;29;20039;-83
2021/10/16 07:15:04;;;;;;;16.27;8.48;;;;;;;10.59;66.98;100194.59;4934349;29;20095;-84
2021/10/16 07:17:31;;;;;;;13.52;8.73;;;;;;;10.61;66.06;100198.00;4932971;29;20054;-86
2021/10/16 07:19:58;;;;;;;15.25;9.25;;;;;;;10.76;65.42;100204.19;4934576;29;20511;-86
2021/10/16 07:22:25;;;;;;;15.35;9.20;;;;;;;10.86;63.57;100204.53;4934977;29;20039;-86
2021/10/16 07:24:51;;;;;;;17.25;8.63;;;;;;;10.89;63.86;100207.00;4935329;29;20044;-87
2021/10/16 07:27:18;;;;;;;20.52;12.13;;;;;;;11.00;63.71;100205.50;4936612;29;20050;-86
2021/10/16 07:29:46;;;;;;;16.23;11.27;;;;;;;11.06;62.12;100214.78;4936056;29;20050;-85
2021/10/16 07:32:15;;;;;;;17.48;10.75;;;;;;;11.12;61.20;100216.22;4936213;29;20051;-85
2021/10/16 07:34:42;;;;;;;17.90;10.65;;;;;;;11.25;60.77;100217.28;4936224;29;20039;-83
2021/10/16 07:37:09;;;;;;;16.65;10.43;;;;;;;11.36;59.97;100221.94;4936100;29;20119;-83
2021/10/16 07:39:36;;;;;;;21.38;10.95;;;;;;;11.26;60.33;100222.41;4936094;29;20474;-83
2021/10/16 07:42:02;;;;;;;18.20;10.73;;;;;;;11.39;59.60;100225.19;4936223;29;20459;-83
2021/10/16 07:44:29;;;;;;;17.95;10.85;;;;;;;11.45;59.93;100224.88;4936130;29;20044;-83
2021/10/16 07:46:56;;;;;;;24.67;11.93;;;;;;;11.42;59.37;100229.41;4935631;29;20044;-83
2021/10/16 07:49:23;;;;;;;17.55;11.43;;;;;;;11.52;59.73;100228.84;4936135;29;20483;-83
2021/10/16 07:51:50;;;;;;;23.75;13.38;;;;;;;11.53;59.35;100229.69;4935856;29;20095;-83
2021/10/16 07:54:18;;;;;;;21.20;10.15;;;;;;;11.59;59.31;100228.50;4935935;29;20040;-83
2021/10/16 07:56:45;;;;;;;18.30;9.82;;;;;;;11.60;59.83;100230.19;4949890;29;20057;-83
2021/10/16 07:59:12;;;;;;;18.05;9.60;;;;;;;11.77;59.29;100232.69;4955231;29;20074;-84
2021/10/16 08:01:40;;;;;;;16.45;11.40;;;;;;;11.84;58.82;100228.88;4937192;29;20058;-83
2021/10/16 08:04:07;;;;;;;19.67;9.93;;;;;;;12.01;58.25;100236.63;4954628;29;20043;-83
2021/10/16 08:06:34;;;;;;;21.45;10.48;;;;;;;11.87;58.91;100244.38;4955357;29;20043;-83
2021/10/16 08:09:03;;;;;;;21.00;12.77;;;;;;;11.92;58.91;100242.34;4937712;29;20049;-84
2021/10/16 08:11:59;;;;;;;18.75;11.90;;;;;;;11.95;59.08;100231.75;4942926;29;20051;-83
2021/10/16 08:14:27;;;;;;;24.05;14.50;;;;;;;12.05;58.43;100232.91;4962484;29;20047;-84
2021/10/16 08:16:53;;;;;;;19.42;12.00;;;;;;;12.09;59.05;100228.38;4954944;29;20047;-84
2021/10/16 08:19:20;;;;;;;22.92;12.27;;;;;;;12.24;58.82;100231.84;4954892;29;20094;-85
2021/10/16 08:21:48;;;;;;;19.83;12.95;;;;;;;12.42;57.98;100232.59;4955078;29;20039;-83
2021/10/16 08:24:14;;;;;;;20.23;12.85;;;;;;;12.35;58.15;100233.84;4953651;29;20471;-84
2021/10/16 08:26:41;;;;;;;23.17;13.98;;;;;;;12.48;57.99;100235.69;4954620;29;20039;-85
2021/10/16 08:29:08;;;;;;;18.70;12.55;;;;;;;12.44;58.56;100234.16;4954133;29;20047;-84
2021/10/16 08:31:35;;;;;;;20.85;11.60;;;;;;;12.67;57.96;100239.81;4937394;29;20035;-84
2021/10/16 08:34:03;;;;;;;18.73;11.60;;;;;;;12.75;57.44;100237.63;4954027;29;20375;-84
2021/10/16 08:36:32;;;;;;;19.73;11.73;;;;;;;12.73;56.48;100231.63;4936650;29;20043;-82
2021/10/16 08:38:59;;;;;;;17.73;11.40;;;;;;;12.99;56.34;100233.53;4936664;29;20043;-86
2021/10/16 08:41:26;;;;;;;22.10;11.65;;;;;;;13.06;56.19;100237.47;4953757;29;20197;-84
2021/10/16 08:43:54;;;;;;;21.60;11.95;;;;;;;13.13;55.72;100237.94;4953478;28;20043;-84
2021/10/16 08:46:24;;;;;;;21.00;11.65;;;;;;;13.30;55.25;100239.56;4953523;29;20043;-84
2021/10/16 08:48:59;;;;;;;26.48;13.98;;;;;;;13.17;53.27;100246.44;4954149;29;20047;-84
2021/10/16 08:51:26;;;;;;;25.70;17.65;;;;;;;13.28;54.39;100246.66;4953336;29;20070;-84
2021/10/16 08:53:53;;;;;;;24.17;16.60;;;;;;;13.54;52.52;100237.22;4936285;29;20095;-83
2021/10/16 08:56:20;;;;;;;29.65;15.07;;;;;;;13.63;53.25;100240.09;4952742;28;20505;-83
2021/10/16 08:58:47;;;;;;;31.13;16.95;;;;;;;13.78;52.82;100246.13;4953881;29;20039;-83
2021/10/16 09:01:14;;;;;;;26.65;18.13;;;;;;;13.42;53.17;100243.19;4953151;29;20055;-83
2021/10/16 09:03:51;;;;;;;27.00;17.63;;;;;;;13.82;53.13;100231.91;4953087;29;20047;-84
2021/10/16 09:06:30;;;;;;;21.88;16.20;;;;;;;13.85;52.82;100246.59;4953480;29;20486;-81
2021/10/16 09:09:09;;;;;;;26.27;16.33;;;;;;;13.68;53.40;100249.41;4953290;29;20039;-83
2021/10/16 09:11:40;;;;;;;29.63;20.08;;;;;;;13.59;52.93;100249.06;4948266;29;20047;-83
2021/10/16 09:14:09;;;;;;;26.00;16.38;;;;;;;13.76;52.65;100241.94;4953598;29;20126;-85
2021/10/16 09:16:39;;;;;;;29.63;18.70;;;;;;;13.84;52.74;100256.22;4953716;29;20426;-83
2021/10/16 09:19:09;;;;;;;29.90;18.42;;;;;;;14.10;52.10;100248.47;4952209;29;20039;-84
2021/10/16 09:21:40;;;;;;;31.02;19.23;;;;;;;14.04;52.31;100252.34;4953771;29;20055;-84
2021/10/16 09:24:26;;;;;;;26.55;18.27;;;;;;;14.22;51.47;100246.84;4952999;29;20043;-86
2021/10/16 09:27:15;;;;;;;31.55;22.45;;;;;;;14.16;52.65;100248.91;4953227;29;20375;-82
2021/10/16 09:29:44;;;;;;;31.98;21.33;;;;;;;14.18;53.05;100248.00;4953629;29;20109;-90
2021/10/16 09:32:13;;;;;;;33.90;23.05;;;;;;;14.26;52.73;100243.06;4953170;29;20047;-82
2021/10/16 09:34:43;;;;;;;36.20;22.73;;;;;;;14.51;52.73;100243.19;4952676;29;20403;-83
2021/10/16 09:37:18;;;;;;;35.60;22.65;;;;;;;14.52;52.36;100254.50;4953300;29;20118;-83
2021/10/16 09:39:47;;;;;;;34.42;23.83;;;;;;;14.27;52.61;100255.25;4953184;29;20042;-81
2021/10/16 09:42:42;;;;;;;36.90;24.15;;;;;;;14.36;52.33;100252.88;4953340;29;20040;-85
2021/10/16 09:45:14;;;;;;;36.60;25.88;;;;;;;14.51;51.56;100258.09;4944352;29;20040;-84
2021/10/16 09:47:55;;;;;;;35.75;23.40;;;;;;;14.71;50.78;100260.22;4941183;29;20055;-86
2021/10/16 09:50:22;;;;;;;31.80;21.92;;;;;;;14.57;50.33;100266.38;4952959;29;20044;-84
2021/10/16 09:52:51;;;;;;;28.80;19.35;;;;;;;14.87;50.69;100255.63;4952992;29;20036;-84
2021/10/16 09:55:18;;;;;;;30.70;20.35;;;;;;;15.00;49.61;100262.66;4954139;28;20506;-85
2021/10/16 09:57:46;;;;;;;32.47;19.75;;;;;;;15.28;48.81;100261.59;4956813;29;20094;-84
2021/10/16 10:00:14;;;;;;;28.13;19.48;;;;;;;15.31;49.43;100251.72;4956945;29;20549;-83
2021/10/16 10:02:49;;;;;;;36.45;20.83;;;;;;;14.85;49.37;100252.25;4956132;29;20051;-86
2021/10/16 10:05:15;;;;;;;;;;;;;;;15.15;50.10;100257.19;4954217;29;20107;-90
2021/10/16 10:07:42;;;;;;;32.53;20.23;;;;;;;15.22;47.88;100252.38;4950385;29;19950;-81
2021/10/16 10:10:09;;;;;;;30.48;18.67;;;;;;;15.09;50.61;100252.38;4953720;29;20043;-81
2021/10/16 10:12:38;;;;;;;38.50;20.33;;;;;;;15.12;50.96;100249.53;4954467;29;20043;-79
2021/10/16 10:15:05;;;;;;;33.65;21.02;;;;;;;15.38;50.23;100258.22;4954574;29;20050;-80
2021/10/16 10:17:33;;;;;;;34.63;23.15;;;;;;;15.00;49.94;100252.16;4954058;29;20043;-81
2021/10/16 10:20:06;;;;;;;35.85;21.75;;;;;;;15.32;49.00;100256.03;4954982;29;20047;-85
2021/10/16 10:22:35;;;;;;;32.95;20.83;;;;;;;15.24;49.35;100258.38;4951998;29;20055;-86
2021/10/16 10:25:23;;;;;;;35.78;22.45;;;;;;;15.50;48.73;100261.81;4952980;29;20531;-89
2021/10/16 10:27:52;;;;;;;34.05;22.63;;;;;;;15.50;48.44;100256.56;4953945;29;20043;-86
2021/10/16 10:30:34;;;;;;;32.13;23.02;;;;;;;15.56;49.51;100256.13;4954010;29;20066;-84
2021/10/16 10:33:16;;;;;;;35.65;22.77;;;;;;;15.49;49.74;100251.38;4953479;29;20873;-87
2021/10/16 10:35:53;;;;;;;32.60;22.67;;;;;;;15.71;49.97;100252.44;4956129;29;20118;-83
2021/10/16 10:38:31;;;;;;;35.38;22.15;;;;;;;15.65;49.70;100252.84;4957260;28;20039;-88
2021/10/16 10:41:18;;;;;;;28.65;21.83;;;;;;;16.01;49.42;100240.66;4956981;29;20047;-86
2021/10/16 10:43:45;;;;;;;34.35;23.48;;;;;;;15.74;50.56;100250.53;4956294;29;20047;-88
2021/10/16 10:46:13;;;;;;;36.88;22.63;;;;;;;15.67;50.64;100237.84;4960104;29;20039;-86
2021/10/16 10:48:44;;;;;;;31.55;23.02;;;;;;;15.36;50.79;100244.38;4960067;29;20509;-88
2021/10/16 10:51:27;;;;;;;32.05;21.98;;;;;;;15.69;50.37;100238.56;4956953;28;20047;-87
2021/10/16 10:54:08;;;;;;;34.65;23.52;;;;;;;15.90;49.81;100235.34;4957068;29;20405;-87
2021/10/16 10:56:41;;;;;;;32.15;21.73;;;;;;;15.63;50.29;100233.75;4955463;28;20055;-87
2021/10/16 10:59:13;;;;;;;29.08;20.92;;;;;;;15.79;49.05;100235.28;4956259;29;20039;-88
2021/10/16 11:02:00;;;;;;;34.60;20.50;;;;;;;15.83;47.57;100216.56;4955673;29;20047;-89
2021/10/16 11:04:40;;;;;;;29.58;19.58;;;;;;;16.18;46.78;100223.63;4937424;29;20054;-90
2021/10/16 11:07:11;;;;;;;30.50;20.38;;;;;;;16.63;46.73;100215.91;4953789;28;20106;-87
2021/10/16 11:09:39;;;;;;;38.85;24.23;;;;;;;16.18;48.33;100211.31;4954600;29;20571;-88
2021/10/16 11:12:07;;;;;;;33.75;22.23;;;;;;;16.58;48.00;100211.00;4954041;28;20055;-89
2021/10/16 11:14:40;;;;;;;27.60;21.02;;;;;;;16.11;48.24;100211.91;4954713;29;20043;-88
2021/10/16 11:17:14;;;;;;;31.63;21.17;;;;;;;15.93;47.67;100209.69;4954784;29;20047;-89
2021/10/16 11:19:55;;;;;;;29.50;19.50;;;;;;;16.06;46.36;100206.13;4950692;29;20506;-89
2021/10/16 11:22:38;;;;;;;29.55;20.73;;;;;;;16.22;46.34;100202.25;4936737;29;20043;-90
2021/10/16 11:25:06;;;;;;;34.15;23.17;;;;;;;16.28;47.08;100206.22;4936874;29;20040;-86
2021/10/16 11:27:33;;;;;;;33.95;23.05;;;;;;;16.25;47.22;100201.22;4946149;29;20047;-87
2021/10/16 11:30:02;;;;;;;33.13;21.08;;;;;;;16.18;47.76;100194.72;4955723;29;20075;-88
2021/10/16 11:32:33;;;;;;;31.80;21.58;;;;;;;16.67;46.78;100186.63;4955620;29;20051;-88
2021/10/16 11:35:04;;;;;;;29.35;19.45;;;;;;;16.84;45.30;100193.25;4955849;29;20118;-87
2021/10/16 11:37:43;;;;;;;32.45;20.63;;;;;;;16.46;44.62;100189.09;4955846;29;20039;-88
2021/10/16 11:40:30;;;;;;;34.42;19.42;;;;;;;16.37;44.93;100188.94;4955812;28;20078;-88
2021/10/16 11:43:03;;;;;;;35.33;19.60;;;;;;;16.78;44.51;100175.31;4955652;29;20051;-87
2021/10/16 11:45:32;;;;;;;27.83;17.23;;;;;;;16.97;44.17;100174.69;4955350;28;20039;-87
2021/10/16 11:48:01;;;;;;;33.70;19.95;;;;;;;16.45;43.55;100176.03;4956190;29;20118;-89
2021/10/16 11:50:34;;;;;;;28.40;16.55;;;;;;;16.56;43.03;100173.41;4955383;28;20055;-88
2021/10/16 11:53:09;;;;;;;26.95;17.17;;;;;;;16.90;42.64;100170.88;4955768;29;20043;-88
2021/10/16 11:55:37;;;;;;;26.48;17.95;;;;;;;16.83;42.37;100167.03;4954907;28;20059;-87
2021/10/16 11:58:06;;;;;;;26.52;16.33;;;;;;;17.38;41.08;100163.56;4955066;29;20047;-88
2021/10/16 12:00:34;;;;;;;29.65;18.05;;;;;;;16.72;42.91;100162.59;4952679;29;20406;-87
2021/10/16 12:03:15;;;;;;;37.35;21.17;;;;;;;17.10;43.14;100154.38;4954788;29;20047;-88
2021/10/16 12:05:49;;;;;;;25.75;16.50;;;;;;;17.03;42.57;100155.78;4955071;29;20070;-88
2021/10/16 12:08:24;;;;;;;31.05;19.65;;;;;;;16.79;43.79;100158.53;4955368;29;20039;-86